Crane, Indiana
Current Conditions -  °F | °C
As of 12:15 PM on Friday 24 Oct 2014 (Local Time) from KDCY Reporting Station
Clear Clear  
Wind Chill: 63°   Ceiling: Unl
Heat Index: 63°   Visibility: 10mi
Dew Point: 47°   Wind: 5mph
Humidity: 56%   Direction: 230°SW
Pressure: 30.1"   Gusts: NA
Location:  38.89°N, 86.9°W
Report Text: KDCY 241715Z AUTO 23004KT 10SM CLR 17/08 A3010 RMK AO2 T01710082
Loading
Personal Weather Stations






























Interactive Weather Map
Tropical Storm Tracking
New forecast layout! Learn more

10-Day Weather Forecast

Advertisements
Track Severe Weather on mobile